createdAt,value
2019-04-10T00:03:40.254Z,60.48
2019-04-10T00:08:40.607Z,60.92
2019-04-10T00:13:42.907Z,60.92
2019-04-10T00:18:44.987Z,60.83
2019-04-10T00:23:47.064Z,60.78
2019-04-10T00:28:49.727Z,61.04
2019-04-10T00:33:51.490Z,61.36
2019-04-10T00:38:53.861Z,61.08
2019-04-10T00:43:55.506Z,61.38
2019-04-10T00:48:57.002Z,61.46
2019-04-10T00:53:59.349Z,61.19
2019-04-10T00:59:01.742Z,61.27
2019-04-10T01:04:04.323Z,61.35
2019-04-10T01:09:06.827Z,61.85
2019-04-10T01:14:09.552Z,61.76
2019-04-10T01:19:12.087Z,62.02
2019-04-10T01:24:13.652Z,62.22
2019-04-10T01:29:15.910Z,62.42
2019-04-10T01:34:17.834Z,63.02
2019-04-10T01:39:19.613Z,63.12
2019-04-10T01:44:21.145Z,63.47
2019-04-10T01:49:23.666Z,63.05
2019-04-10T01:54:25.454Z,63.23
2019-04-10T01:59:26.986Z,63.13
2019-04-10T02:04:28.920Z,63.16
2019-04-10T02:09:31.741Z,63.73
2019-04-10T02:14:33.394Z,63.37
2019-04-10T02:19:34.953Z,63.31
2019-04-10T02:24:36.480Z,63.55
2019-04-10T02:29:37.985Z,63.70
2019-04-10T02:34:41.322Z,63.89
2019-04-10T02:39:47.783Z,63.99
2019-04-10T02:44:48.081Z,64.13
2019-04-10T02:49:49.916Z,63.50
2019-04-10T02:54:51.451Z,64.17
2019-04-10T02:59:53.852Z,64.12
2019-04-10T03:04:57.350Z,64.57
2019-04-10T03:10:11.316Z,64.02
2019-04-10T03:15:03.465Z,64.40
2019-04-10T03:20:05.878Z,64.55
2019-04-10T03:25:08.752Z,64.64
2019-04-10T03:30:12.786Z,64.33
2019-04-10T03:35:14.544Z,64.36
2019-04-10T03:40:16.163Z,64.42
2019-04-10T03:45:17.710Z,64.30
2019-04-10T03:50:19.624Z,64.15
2019-04-10T03:55:21.161Z,64.60
2019-04-10T04:00:23.159Z,64.35
2019-04-10T04:05:24.662Z,64.40
2019-04-10T04:10:26.813Z,64.61
2019-04-10T04:15:28.377Z,64.45
2019-04-10T04:20:30.704Z,64.59
2019-04-10T04:25:32.660Z,64.34
2019-04-10T04:30:34.179Z,64.44
2019-04-10T04:35:36.681Z,64.33
2019-04-10T04:40:38.284Z,64.36
2019-04-10T04:45:40.248Z,64.31
2019-04-10T04:50:42.271Z,64.31
2019-04-10T04:55:44.923Z,64.47
2019-04-10T05:00:46.665Z,64.76
2019-04-10T05:05:49.736Z,64.83
2019-04-10T05:10:51.517Z,65.13
2019-04-10T05:15:53.372Z,65.33
2019-04-10T05:20:54.967Z,65.34
2019-04-10T05:25:56.491Z,65.49
2019-04-10T05:30:58.939Z,65.79
2019-04-10T05:36:01.324Z,65.80
2019-04-10T05:41:03.237Z,65.58
2019-04-10T05:46:04.991Z,65.36
2019-04-10T05:51:08.010Z,65.11
2019-04-10T05:56:10.124Z,64.77
2019-04-10T06:01:11.774Z,64.71
2019-04-10T06:06:14.457Z,64.62
2019-04-10T06:11:17.131Z,64.21
2019-04-10T06:16:19.550Z,63.69
2019-04-10T06:21:21.341Z,63.45
2019-04-10T06:26:23.721Z,63.67
2019-04-10T06:31:25.544Z,63.23
2019-04-10T06:36:27.486Z,63.11
2019-04-10T06:41:29.105Z,62.62
2019-04-10T06:46:30.812Z,62.43
2019-04-10T06:51:33.437Z,62.24
2019-04-10T06:56:35.660Z,62.27
2019-04-10T07:01:45.795Z,61.93
2019-04-10T07:06:53.974Z,62.02
2019-04-10T07:11:44.947Z,61.24
2019-04-10T07:16:46.587Z,61.23
2019-04-10T07:21:49.159Z,61.09
2019-04-10T07:26:51.035Z,60.65
2019-04-10T07:31:52.937Z,60.21
2019-04-10T07:36:54.639Z,60.14
2019-04-10T07:41:56.136Z,60.26
2019-04-10T07:46:59.102Z,59.91
2019-04-10T07:52:02.475Z,59.79
2019-04-10T07:57:04.647Z,59.05
2019-04-10T08:02:08.466Z,59.02
2019-04-10T08:07:09.592Z,58.24
2019-04-10T08:12:11.365Z,58.25
2019-04-10T08:17:14.348Z,57.87
2019-04-10T08:22:15.879Z,56.70
2019-04-10T08:27:17.414Z,55.75
2019-04-10T08:32:18.942Z,55.99
2019-04-10T08:37:20.711Z,54.96
2019-04-10T08:42:22.503Z,54.17
2019-04-10T08:47:24.879Z,52.93
2019-04-10T08:52:26.566Z,53.60
2019-04-10T08:57:28.070Z,52.44
2019-04-10T09:02:30.398Z,50.88
2019-04-10T09:07:32.601Z,51.46
2019-04-10T09:12:34.164Z,50.29
2019-04-10T09:17:35.686Z,49.38
2019-04-10T09:22:57.940Z,50.18
2019-04-10T09:27:42.738Z,49.77
2019-04-10T09:32:44.453Z,49.28
2019-04-10T09:37:46.282Z,49.82
2019-04-10T09:42:48.084Z,48.74
2019-04-10T09:47:50.294Z,47.40
2019-04-10T09:52:52.362Z,47.20
2019-04-10T09:57:54.026Z,45.77
2019-04-10T10:03:00.117Z,47.92
2019-04-10T10:08:02.218Z,47.04
2019-04-10T10:13:03.931Z,45.82
2019-04-10T10:18:05.846Z,47.82
2019-04-10T10:23:07.562Z,45.69
2019-04-10T10:28:09.502Z,45.85
2019-04-10T10:33:11.033Z,44.82
2019-04-10T10:38:12.759Z,45.95
2019-04-10T10:43:14.413Z,43.14
2019-04-10T10:48:16.408Z,44.74
2019-04-10T10:53:18.313Z,44.34
2019-04-10T10:58:19.820Z,43.54
2019-04-10T11:03:22.441Z,43.21
2019-04-10T11:08:24.534Z,42.50
2019-04-10T11:13:26.584Z,40.71
2019-04-10T11:18:28.654Z,43.82
2019-04-10T11:23:30.582Z,38.40
2019-04-10T11:28:33.805Z,40.94
2019-04-10T11:33:37.318Z,42.52
2019-04-10T11:38:39.860Z,40.85
2019-04-10T11:43:41.737Z,42.25
2019-04-10T11:48:45.474Z,39.85
2019-04-10T11:53:48.698Z,38.04
2019-04-10T11:58:55.872Z,39.56
2019-04-10T12:03:56.601Z,41.15
2019-04-10T12:09:19.462Z,40.43
2019-04-10T12:14:01.310Z,39.55
2019-04-10T12:19:02.867Z,36.38
2019-04-10T12:24:05.365Z,38.45
2019-04-10T12:29:07.325Z,36.06
2019-04-10T12:34:09.159Z,36.06
2019-04-10T12:39:10.744Z,36.29
2019-04-10T12:44:12.261Z,36.19
2019-04-10T12:49:15.009Z,34.40
2019-04-10T12:54:17.401Z,35.95
2019-04-10T12:59:19.439Z,36.79
2019-04-10T13:04:22.265Z,32.86
2019-04-10T13:09:24.248Z,31.70
2019-04-10T13:14:26.481Z,37.59
2019-04-10T13:19:29.157Z,33.49
2019-04-10T13:24:30.792Z,34.71
2019-04-10T13:29:32.322Z,32.49
2019-04-10T13:34:33.860Z,35.11
2019-04-10T13:39:35.435Z,33.27
2019-04-10T13:44:38.387Z,36.28
2019-04-10T13:49:40.092Z,34.38
2019-04-10T13:54:41.554Z,37.29
2019-04-10T13:59:43.132Z,36.78
2019-04-10T14:04:45.228Z,37.35
2019-04-10T14:09:51.387Z,34.78
2019-04-10T14:14:51.091Z,35.37
2019-04-10T14:19:54.034Z,34.76
2019-04-10T14:24:55.799Z,35.44
2019-04-10T14:29:57.332Z,34.64
2019-04-10T14:34:58.917Z,34.21
2019-04-10T14:40:00.483Z,35.70
2019-04-10T14:45:03.440Z,35.31
2019-04-10T14:50:05.394Z,34.49
2019-04-10T14:55:06.911Z,34.18
2019-04-10T15:00:08.604Z,38.32
2019-04-10T15:05:10.416Z,34.01
2019-04-10T15:10:11.911Z,34.96
2019-04-10T15:15:14.311Z,34.58
2019-04-10T15:20:16.051Z,34.12
2019-04-10T15:25:17.592Z,35.45
2019-04-10T15:30:20.220Z,34.42
2019-04-10T15:35:21.795Z,35.74
2019-04-10T15:40:25.765Z,35.95
2019-04-10T15:45:28.106Z,35.94
2019-04-10T15:50:30.503Z,34.98
2019-04-10T15:55:32.278Z,33.47
2019-04-10T16:00:34.794Z,33.83
2019-04-10T16:05:37.627Z,34.36
2019-04-10T16:10:39.355Z,35.05
2019-04-10T16:15:40.999Z,34.20
2019-04-10T16:20:43.210Z,34.29
2019-04-10T16:25:44.947Z,34.17
2019-04-10T16:30:46.684Z,34.79
2019-04-10T16:35:48.350Z,36.91
2019-04-10T16:40:50.543Z,33.68
2019-04-10T16:45:53.010Z,33.77
2019-04-10T16:50:54.613Z,36.27
2019-04-10T16:55:56.876Z,33.83
2019-04-10T17:00:58.670Z,33.84
2019-04-10T17:06:00.250Z,35.49
2019-04-10T17:11:02.933Z,34.52
2019-04-10T17:16:07.319Z,35.16
2019-04-10T17:21:09.067Z,34.30
2019-04-10T17:26:12.831Z,34.67
2019-04-10T17:31:14.587Z,35.18
2019-04-10T17:36:16.896Z,33.91
2019-04-10T17:41:19.670Z,33.54
2019-04-10T17:46:27.494Z,34.68
2019-04-10T17:51:30.326Z,35.48
2019-04-10T17:56:32.598Z,37.41
2019-04-10T18:01:39.224Z,38.72
2019-04-10T18:06:44.034Z,40.08
2019-04-10T18:11:45.642Z,41.15
2019-04-10T18:16:48.409Z,42.00
2019-04-10T18:21:50.000Z,42.30
2019-04-10T18:26:53.663Z,42.98
2019-04-10T18:31:57.328Z,43.63
2019-04-10T18:36:58.661Z,43.72
2019-04-10T18:42:01.299Z,44.26
2019-04-10T18:47:04.879Z,44.68
2019-04-10T18:52:07.456Z,44.96
2019-04-10T18:57:09.428Z,45.45
2019-04-10T19:02:11.741Z,45.75
2019-04-10T19:07:13.753Z,45.91
2019-04-10T19:12:15.386Z,46.26
2019-04-10T19:17:17.142Z,47.19
2019-04-10T19:22:20.197Z,48.12
2019-04-10T19:27:22.560Z,48.62
2019-04-10T19:32:24.696Z,49.15
2019-04-10T19:37:26.736Z,49.26
2019-04-10T19:42:29.276Z,49.50
2019-04-10T19:47:31.192Z,49.79
2019-04-10T19:52:33.461Z,50.08
2019-04-10T19:57:35.333Z,49.95
2019-04-10T20:02:37.266Z,50.25
2019-04-10T20:07:39.224Z,50.59
2019-04-10T20:12:42.510Z,50.90
2019-04-10T20:17:44.598Z,51.20
2019-04-10T20:22:46.322Z,51.81
2019-04-10T20:27:48.004Z,52.11
2019-04-10T20:32:52.348Z,52.07
2019-04-10T20:37:55.325Z,52.25
2019-04-10T20:42:56.971Z,52.74
2019-04-10T20:47:58.578Z,52.83
2019-04-10T20:53:00.088Z,53.78
2019-04-10T20:58:04.465Z,53.84
2019-04-10T21:03:05.460Z,54.51
2019-04-10T21:08:07.086Z,54.48
2019-04-10T21:13:08.681Z,55.17
2019-04-10T21:18:11.060Z,55.78
2019-04-10T21:23:13.123Z,56.11
2019-04-10T21:28:14.781Z,56.43
2019-04-10T21:33:16.350Z,57.04
2019-04-10T21:38:17.875Z,56.85
2019-04-10T21:43:20.304Z,57.85
2019-04-10T21:48:22.891Z,58.01
2019-04-10T21:53:24.412Z,58.25
2019-04-10T21:58:26.179Z,58.42
2019-04-10T22:03:27.686Z,58.51
2019-04-10T22:08:29.542Z,58.45
2019-04-10T22:13:32.241Z,59.65
2019-04-10T22:18:33.981Z,60.14
2019-04-10T22:23:36.387Z,59.74
2019-04-10T22:28:37.973Z,60.29
2019-04-10T22:33:40.497Z,60.59
2019-04-10T22:38:42.097Z,60.41
2019-04-10T22:43:44.862Z,61.19
2019-04-10T22:48:47.698Z,61.27
2019-04-10T22:53:50.052Z,60.52
2019-04-10T22:58:51.716Z,61.96
2019-04-10T23:03:53.210Z,61.88
2019-04-10T23:08:55.832Z,61.43
2019-04-10T23:13:58.507Z,61.58
2019-04-10T23:19:01.573Z,61.88
2019-04-10T23:24:04.031Z,62.34
2019-04-10T23:29:06.258Z,62.26
2019-04-10T23:34:08.383Z,61.83
2019-04-10T23:39:10.434Z,61.61
2019-04-10T23:44:13.010Z,61.17
2019-04-10T23:49:14.695Z,62.75
2019-04-10T23:54:17.235Z,62.35
2019-04-10T23:59:20.441Z,62.08
